createdAt,value
2024-05-09T00:03:43.695Z,0.70
2024-05-09T00:13:47.346Z,0.40
2024-05-09T00:23:49.958Z,0.30
2024-05-09T00:33:56.288Z,0.23
2024-05-09T00:43:59.711Z,0.50
2024-05-09T00:54:02.724Z,0.55
2024-05-09T01:04:05.678Z,0.40
2024-05-09T01:14:08.451Z,0.50
2024-05-09T01:24:11.203Z,0.40
2024-05-09T01:34:13.876Z,0.20
2024-05-09T01:44:16.696Z,0.30
2024-05-09T01:54:19.448Z,0.40
2024-05-09T02:04:22.189Z,0.30
2024-05-09T02:14:25.065Z,0.23
2024-05-09T02:24:27.747Z,0.20
2024-05-09T02:34:30.449Z,0.32
2024-05-09T02:44:33.161Z,0.20
2024-05-09T02:54:35.794Z,0.20
2024-05-09T03:04:38.801Z,0.50
2024-05-09T03:14:41.554Z,0.40
2024-05-09T03:24:44.189Z,0.20
2024-05-09T03:34:46.826Z,0.27
2024-05-09T03:44:49.567Z,0.20
2024-05-09T03:54:52.205Z,0.20
2024-05-09T04:04:54.889Z,0.20
2024-05-09T04:14:58.008Z,0.35
2024-05-09T04:25:00.669Z,0.30
2024-05-09T04:35:03.667Z,0.47
2024-05-09T04:45:06.680Z,0.30
2024-05-09T04:55:09.283Z,0.30
2024-05-09T05:05:12.262Z,0.43
2024-05-09T05:15:15.109Z,0.40
2024-05-09T05:25:18.399Z,0.30
2024-05-09T05:35:21.902Z,0.37
2024-05-09T05:45:24.657Z,0.50
2024-05-09T05:55:27.380Z,0.77
2024-05-09T06:05:30.840Z,0.30
2024-05-09T06:15:33.585Z,0.60
2024-05-09T06:25:36.970Z,0.70
2024-05-09T06:35:40.829Z,0.80
2024-05-09T06:45:53.999Z,0.60
2024-05-09T06:56:02.417Z,0.73
2024-05-09T07:06:05.945Z,0.50
2024-05-09T07:16:10.029Z,0.40
2024-05-09T07:26:13.549Z,0.50
2024-05-09T07:36:16.392Z,0.40
2024-05-09T07:47:14.509Z,0.60
2024-05-09T07:56:42.169Z,0.50
2024-05-09T08:06:44.976Z,0.65
2024-05-09T08:16:47.715Z,0.53
2024-05-09T08:26:50.512Z,0.63
2024-05-09T08:36:53.398Z,0.83
2024-05-09T08:46:57.349Z,0.50
2024-05-09T08:57:00.992Z,0.40
2024-05-09T09:07:07.133Z,0.50
2024-05-09T09:17:17.030Z,1.27
2024-05-09T09:27:19.905Z,0.70
2024-05-09T09:37:28.719Z,1.20
2024-05-09T09:47:33.333Z,1.30
2024-05-09T09:57:40.312Z,0.53
2024-05-09T10:07:46.725Z,0.97
2024-05-09T10:17:51.539Z,0.80
2024-05-09T10:28:00.383Z,1.00
2024-05-09T10:38:08.936Z,0.97
2024-05-09T10:48:12.032Z,0.90
2024-05-09T10:58:18.406Z,1.55
2024-05-09T11:08:23.311Z,0.90
2024-05-09T11:18:30.848Z,1.00
2024-05-09T11:28:36.528Z,1.13
2024-05-09T11:38:40.693Z,1.43
2024-05-09T11:48:44.157Z,0.90
2024-05-09T11:58:47.486Z,1.43
2024-05-09T12:08:50.552Z,1.25
2024-05-09T12:18:54.178Z,1.00
2024-05-09T12:28:59.293Z,1.10
2024-05-09T12:39:06.312Z,1.15
2024-05-09T12:49:10.537Z,1.80
2024-05-09T12:59:14.124Z,1.13
2024-05-09T13:09:16.934Z,1.10
2024-05-09T13:19:19.946Z,0.97
2024-05-09T13:29:23.221Z,0.90
2024-05-09T13:39:25.882Z,1.13
2024-05-09T13:49:29.302Z,1.33
2024-05-09T13:59:32.374Z,1.37
2024-05-09T14:09:35.065Z,1.65
2024-05-09T14:19:37.857Z,1.10
2024-05-09T14:30:12.172Z,1.13
2024-05-09T14:40:31.112Z,1.40
2024-05-09T14:50:43.633Z,1.20
2024-05-09T15:00:50.204Z,1.20
2024-05-09T15:10:54.445Z,1.52
2024-05-09T15:20:57.654Z,1.20
2024-05-09T15:31:01.163Z,1.20
2024-05-09T15:41:05.135Z,1.00
2024-05-09T15:51:07.994Z,1.10
2024-05-09T16:01:12.578Z,1.13
2024-05-09T16:11:17.282Z,0.82
2024-05-09T16:21:20.656Z,1.27
2024-05-09T16:31:25.221Z,1.00
2024-05-09T16:41:28.638Z,0.80
2024-05-09T16:51:31.549Z,0.70
2024-05-09T17:01:34.457Z,1.30
2024-05-09T17:11:37.358Z,0.82
2024-05-09T17:21:40.118Z,0.80
2024-05-09T17:31:44.121Z,0.80
2024-05-09T17:41:46.869Z,0.60
2024-05-09T17:51:53.940Z,0.50
2024-05-09T18:01:57.203Z,0.47
2024-05-09T18:12:00.223Z,0.30
2024-05-09T18:22:03.034Z,0.32
2024-05-09T18:32:06.696Z,0.20
2024-05-09T18:42:09.441Z,0.50
2024-05-09T18:52:12.987Z,0.30
2024-05-09T19:02:15.890Z,0.60
2024-05-09T19:12:18.736Z,0.40
2024-05-09T19:22:22.560Z,0.40
2024-05-09T19:32:26.272Z,0.30
2024-05-09T19:42:31.448Z,0.33
2024-05-09T19:52:34.457Z,0.20
2024-05-09T20:02:37.593Z,0.20
2024-05-09T20:12:40.395Z,0.27
2024-05-09T20:22:44.746Z,0.30
2024-05-09T20:32:47.978Z,0.20
2024-05-09T20:42:51.441Z,0.40
2024-05-09T20:52:54.038Z,0.23
2024-05-09T21:02:56.857Z,0.20
2024-05-09T21:12:59.715Z,0.40
2024-05-09T21:23:03.014Z,0.20
2024-05-09T21:33:06.190Z,0.20
2024-05-09T21:43:09.306Z,0.20
2024-05-09T21:53:12.837Z,0.27
2024-05-09T22:03:16.133Z,0.23
2024-05-09T22:13:20.339Z,0.30
2024-05-09T22:23:23.070Z,0.30
2024-05-09T22:33:25.820Z,0.20
2024-05-09T22:43:28.476Z,0.30
2024-05-09T22:53:31.091Z,0.20
2024-05-09T23:03:34.118Z,0.33
2024-05-09T23:13:37.076Z,0.20
2024-05-09T23:23:39.707Z,0.10
2024-05-09T23:33:47.143Z,0.20
2024-05-09T23:43:50.322Z,0.30
2024-05-09T23:53:53.065Z,0.30
